createdAt,value
2022-12-19T00:01:37.747Z,46.37
2022-12-19T00:04:08.613Z,43.50
2022-12-19T00:06:37.959Z,41.33
2022-12-19T00:09:10.128Z,45.53
2022-12-19T00:11:38.610Z,43.27
2022-12-19T00:14:05.994Z,44.57
2022-12-19T00:16:32.963Z,41.67
2022-12-19T00:19:01.374Z,45.00
2022-12-19T00:21:30.466Z,39.73
2022-12-19T00:23:57.355Z,45.40
2022-12-19T00:26:26.561Z,41.83
2022-12-19T00:29:05.396Z,39.63
2022-12-19T00:31:36.590Z,36.27
2022-12-19T00:34:03.744Z,40.83
2022-12-19T00:36:33.795Z,41.00
2022-12-19T00:39:01.937Z,43.33
2022-12-19T00:41:36.174Z,43.60
2022-12-19T00:44:07.098Z,50.07
2022-12-19T00:46:35.484Z,43.40
2022-12-19T00:49:02.737Z,41.80
2022-12-19T00:51:31.700Z,39.47
2022-12-19T00:53:59.135Z,41.30
2022-12-19T00:56:28.979Z,43.13
2022-12-19T00:58:56.979Z,42.23
2022-12-19T01:01:33.405Z,43.70
2022-12-19T01:06:47.816Z,38.87
2022-12-19T01:09:15.099Z,38.70
2022-12-19T01:12:00.276Z,45.80
2022-12-19T01:14:27.244Z,37.70
2022-12-19T01:16:53.915Z,41.63
2022-12-19T01:19:20.620Z,40.53
2022-12-19T01:21:47.276Z,40.73
2022-12-19T01:24:15.817Z,41.40
2022-12-19T01:26:46.064Z,37.70
2022-12-19T01:29:12.779Z,43.90
2022-12-19T01:31:39.525Z,40.97
2022-12-19T01:34:06.340Z,51.00
2022-12-19T01:36:34.674Z,46.03
2022-12-19T01:39:07.026Z,40.80
2022-12-19T01:41:33.702Z,41.80
2022-12-19T01:44:01.586Z,46.77
2022-12-19T01:46:41.296Z,41.67
2022-12-19T01:49:19.158Z,44.30
2022-12-19T01:51:51.921Z,45.20
2022-12-19T01:54:22.661Z,38.43
2022-12-19T01:56:52.472Z,48.20
2022-12-19T01:59:25.223Z,45.83
2022-12-19T02:02:00.369Z,41.97
2022-12-19T02:04:32.357Z,44.33
2022-12-19T02:07:04.718Z,43.23
2022-12-19T02:09:43.433Z,42.23
2022-12-19T02:12:10.114Z,44.57
2022-12-19T02:14:36.824Z,40.50
2022-12-19T02:17:18.079Z,39.73
2022-12-19T02:20:07.874Z,45.00
2022-12-19T02:23:08.400Z,36.77
2022-12-19T02:25:43.043Z,39.13
2022-12-19T02:28:26.600Z,40.63
2022-12-19T02:31:29.406Z,41.60
2022-12-19T02:34:08.091Z,42.80
2022-12-19T02:36:45.236Z,42.40
2022-12-19T02:39:25.208Z,38.63
2022-12-19T02:41:57.096Z,48.30
2022-12-19T02:44:32.891Z,47.60
2022-12-19T02:47:02.621Z,48.50
2022-12-19T02:49:31.007Z,42.00
2022-12-19T02:51:58.457Z,40.03
2022-12-19T02:54:25.637Z,45.87
2022-12-19T02:57:03.329Z,41.90
2022-12-19T03:00:03.436Z,41.10
2022-12-19T03:02:39.150Z,41.00
2022-12-19T03:05:18.703Z,44.80
2022-12-19T03:07:53.157Z,43.77
2022-12-19T03:10:35.628Z,40.90
2022-12-19T03:13:20.634Z,42.40
2022-12-19T03:15:48.253Z,51.63
2022-12-19T03:18:15.408Z,42.53
2022-12-19T03:21:09.977Z,43.13
2022-12-19T03:23:37.715Z,40.03
2022-12-19T03:26:17.800Z,43.10
2022-12-19T03:29:03.305Z,45.70
2022-12-19T03:31:32.262Z,45.23
2022-12-19T03:34:03.201Z,42.97
2022-12-19T03:36:44.031Z,41.50
2022-12-19T03:39:12.754Z,38.37
2022-12-19T03:41:59.326Z,43.17
2022-12-19T03:44:30.106Z,48.80
2022-12-19T03:47:29.111Z,46.43
2022-12-19T03:49:55.955Z,45.63
2022-12-19T03:52:34.412Z,41.37
2022-12-19T03:55:26.308Z,50.67
2022-12-19T03:57:58.116Z,43.73
2022-12-19T04:00:26.896Z,41.23
2022-12-19T04:02:56.375Z,42.40
2022-12-19T04:05:26.416Z,43.43
2022-12-19T04:08:03.824Z,41.87
2022-12-19T04:10:32.393Z,46.00
2022-12-19T04:13:03.122Z,44.23
2022-12-19T04:15:39.654Z,44.50
2022-12-19T04:18:10.420Z,43.87
2022-12-19T04:20:41.060Z,43.67
2022-12-19T04:23:20.948Z,51.20
2022-12-19T04:25:51.757Z,46.83
2022-12-19T04:28:43.643Z,42.93
2022-12-19T04:31:13.889Z,44.83
2022-12-19T04:33:40.722Z,54.30
2022-12-19T04:36:07.742Z,46.37
2022-12-19T04:38:34.613Z,48.00
2022-12-19T04:41:01.288Z,43.47
2022-12-19T04:43:28.180Z,39.83
2022-12-19T04:45:57.576Z,40.17
2022-12-19T04:48:25.468Z,41.33
2022-12-19T04:50:52.348Z,43.40
2022-12-19T04:53:19.299Z,48.27
2022-12-19T04:55:46.007Z,45.57
2022-12-19T04:58:16.310Z,45.03
2022-12-19T05:00:45.707Z,40.97
2022-12-19T05:03:12.465Z,43.43
2022-12-19T05:05:39.150Z,48.40
2022-12-19T05:08:06.056Z,41.90
2022-12-19T05:10:32.891Z,47.47
2022-12-19T05:12:59.593Z,50.10
2022-12-19T05:15:26.241Z,48.80
2022-12-19T05:17:52.962Z,48.30
2022-12-19T05:20:19.712Z,49.70
2022-12-19T05:22:46.445Z,45.10
2022-12-19T05:25:13.117Z,39.00
2022-12-19T05:27:39.981Z,48.70
2022-12-19T05:30:07.257Z,50.20
2022-12-19T05:32:34.811Z,43.30
2022-12-19T05:35:01.566Z,48.07
2022-12-19T05:37:28.235Z,57.53
2022-12-19T05:39:55.167Z,54.40
2022-12-19T05:42:21.835Z,48.10
2022-12-19T05:44:48.486Z,50.97
2022-12-19T05:47:15.154Z,47.13
2022-12-19T05:49:41.902Z,46.93
2022-12-19T05:52:09.139Z,45.30
2022-12-19T05:54:35.804Z,47.03
2022-12-19T05:57:02.511Z,47.03
2022-12-19T05:59:29.172Z,42.07
2022-12-19T06:01:55.956Z,57.23
2022-12-19T06:04:22.658Z,47.40
2022-12-19T06:06:49.306Z,52.97
2022-12-19T06:09:16.363Z,49.80
2022-12-19T06:11:43.085Z,51.77
2022-12-19T06:14:09.863Z,50.37
2022-12-19T06:16:36.545Z,46.10
2022-12-19T06:19:03.265Z,53.57
2022-12-19T06:21:30.142Z,51.23
2022-12-19T06:23:56.897Z,49.70
2022-12-19T06:26:23.614Z,51.90
2022-12-19T06:28:52.341Z,51.83
2022-12-19T06:31:20.653Z,50.17
2022-12-19T06:33:47.568Z,51.57
2022-12-19T06:36:20.233Z,47.53
2022-12-19T06:38:47.679Z,51.20
2022-12-19T06:41:33.785Z,52.57
2022-12-19T06:44:01.874Z,52.23
2022-12-19T06:46:29.049Z,51.80
2022-12-19T06:48:55.740Z,49.90
2022-12-19T06:51:23.181Z,53.60
2022-12-19T06:53:50.517Z,51.10
2022-12-19T06:56:18.188Z,47.40
2022-12-19T06:58:44.917Z,58.23
2022-12-19T07:01:45.980Z,51.57
2022-12-19T07:04:17.771Z,58.87
2022-12-19T07:06:48.887Z,48.40
2022-12-19T07:09:16.132Z,51.87
2022-12-19T07:11:42.796Z,48.70
2022-12-19T07:14:10.189Z,48.70
2022-12-19T07:16:37.960Z,51.03
2022-12-19T07:19:05.937Z,57.90
2022-12-19T07:21:35.974Z,63.03
2022-12-19T07:24:03.937Z,59.93
2022-12-19T07:26:30.729Z,60.50
2022-12-19T07:28:58.087Z,59.50
2022-12-19T07:31:24.774Z,51.23
2022-12-19T07:33:51.632Z,60.30
2022-12-19T07:36:18.321Z,60.97
2022-12-19T07:38:45.375Z,61.13
2022-12-19T07:41:12.026Z,62.30
2022-12-19T07:43:38.701Z,64.50
2022-12-19T07:46:05.555Z,55.30
2022-12-19T07:48:32.287Z,66.30
2022-12-19T07:50:58.941Z,65.80
2022-12-19T07:53:25.675Z,60.83
2022-12-19T07:55:53.048Z,55.67
2022-12-19T07:58:19.816Z,53.90
2022-12-19T08:00:53.168Z,61.97
2022-12-19T08:03:19.898Z,55.10
2022-12-19T08:05:46.632Z,66.73
2022-12-19T08:08:13.370Z,55.40
2022-12-19T08:10:41.646Z,58.50
2022-12-19T08:13:09.069Z,59.00
2022-12-19T08:15:35.777Z,70.70
2022-12-19T08:18:03.485Z,58.87
2022-12-19T08:20:30.397Z,58.73
2022-12-19T08:22:57.313Z,59.60
2022-12-19T08:25:24.161Z,64.40
2022-12-19T08:27:50.879Z,57.07
2022-12-19T08:30:18.865Z,61.80
2022-12-19T08:32:45.898Z,51.27
2022-12-19T08:35:12.850Z,55.67
2022-12-19T08:37:39.822Z,63.87
2022-12-19T08:40:07.441Z,57.67
2022-12-19T08:42:34.125Z,65.90
2022-12-19T08:45:01.100Z,64.43
2022-12-19T08:47:27.878Z,84.27
2022-12-19T08:49:54.785Z,50.57
2022-12-19T08:52:21.457Z,55.50
2022-12-19T08:54:48.340Z,61.77
2022-12-19T08:57:15.503Z,56.30
2022-12-19T08:59:42.260Z,66.90
2022-12-19T09:02:10.561Z,61.20
2022-12-19T09:05:59.735Z,56.40
2022-12-19T09:07:24.288Z,54.40
2022-12-19T09:09:51.013Z,56.23
2022-12-19T09:12:17.758Z,55.63
2022-12-19T09:14:44.563Z,51.77
2022-12-19T09:17:11.303Z,52.70
2022-12-19T09:19:38.314Z,52.13
2022-12-19T09:22:05.788Z,52.27
2022-12-19T09:24:32.529Z,54.73
2022-12-19T09:26:59.199Z,59.13
2022-12-19T09:29:26.576Z,56.03
2022-12-19T09:31:56.321Z,55.80
2022-12-19T09:34:36.753Z,51.07
2022-12-19T09:37:15.380Z,58.07
2022-12-19T09:39:43.283Z,63.83
2022-12-19T09:42:13.402Z,53.90
2022-12-19T09:44:49.735Z,55.97
2022-12-19T09:47:17.913Z,65.17
2022-12-19T09:49:47.320Z,52.80
2022-12-19T09:52:33.199Z,59.27
2022-12-19T09:55:19.080Z,52.00
2022-12-19T09:58:31.770Z,54.07
2022-12-19T10:01:02.215Z,50.43
2022-12-19T10:03:30.391Z,57.37
2022-12-19T10:07:11.504Z,53.40
2022-12-19T10:10:52.886Z,57.83
2022-12-19T10:12:38.936Z,56.73
2022-12-19T10:15:06.301Z,60.10
2022-12-19T10:18:01.316Z,59.23
2022-12-19T10:20:32.633Z,72.00
2022-12-19T10:23:20.782Z,51.60
2022-12-19T10:25:54.808Z,56.40
2022-12-19T10:28:40.040Z,55.33
2022-12-19T10:31:27.737Z,57.57
2022-12-19T10:34:01.412Z,52.77
2022-12-19T10:37:04.384Z,51.40
2022-12-19T10:39:31.737Z,54.70
2022-12-19T10:42:09.392Z,52.50
2022-12-19T10:44:40.204Z,53.67
2022-12-19T10:47:15.091Z,49.97
2022-12-19T10:49:42.114Z,53.03
2022-12-19T10:52:11.189Z,55.93
2022-12-19T10:54:37.833Z,52.37
2022-12-19T10:57:28.628Z,52.73
2022-12-19T11:00:00.353Z,54.53
2022-12-19T11:02:38.864Z,56.13
2022-12-19T11:05:21.132Z,53.47
2022-12-19T11:08:06.951Z,52.20
2022-12-19T11:11:27.688Z,59.20
2022-12-19T11:18:32.516Z,51.83
2022-12-19T11:20:49.656Z,51.80
2022-12-19T11:29:32.232Z,47.73
2022-12-19T11:30:21.344Z,59.67
2022-12-19T11:30:43.174Z,55.53
2022-12-19T11:30:45.506Z,49.80
2022-12-19T11:32:32.172Z,58.33
2022-12-19T11:34:18.361Z,54.27
2022-12-19T11:37:12.957Z,49.47
2022-12-19T11:39:42.077Z,57.87
2022-12-19T11:42:25.405Z,57.97
2022-12-19T11:45:01.594Z,52.27
2022-12-19T11:47:41.119Z,52.07
2022-12-19T11:50:34.063Z,53.60
2022-12-19T11:53:23.293Z,55.00
2022-12-19T11:56:01.645Z,56.23
2022-12-19T11:58:30.004Z,47.70
2022-12-19T12:01:14.240Z,51.90
2022-12-19T12:04:03.338Z,56.80
2022-12-19T12:06:35.423Z,54.53
2022-12-19T12:11:10.489Z,56.40
2022-12-19T12:19:16.571Z,53.37
2022-12-19T12:29:14.465Z,49.93
2022-12-19T12:31:27.997Z,53.60
2022-12-19T12:31:31.017Z,61.13
2022-12-19T12:31:45.833Z,59.27
2022-12-19T12:35:16.297Z,53.37
2022-12-19T12:35:51.344Z,59.60
2022-12-19T12:38:25.062Z,59.10
2022-12-19T12:41:04.238Z,60.13
2022-12-19T12:43:30.936Z,61.50
2022-12-19T12:45:57.673Z,54.10
2022-12-19T12:48:31.268Z,56.73
2022-12-19T12:51:00.415Z,52.93
2022-12-19T12:53:33.445Z,48.73
2022-12-19T12:56:03.250Z,56.57
2022-12-19T12:58:41.925Z,56.80
2022-12-19T13:01:28.956Z,73.47
2022-12-19T13:04:11.522Z,58.00
2022-12-19T13:07:01.983Z,57.10
2022-12-19T13:09:31.530Z,62.43
2022-12-19T13:12:39.333Z,56.40
2022-12-19T13:15:27.716Z,57.27
2022-12-19T13:17:54.366Z,62.57
2022-12-19T13:20:23.827Z,54.43
2022-12-19T13:22:58.433Z,59.73
2022-12-19T13:25:49.832Z,53.00
2022-12-19T13:28:38.132Z,55.50
2022-12-19T13:31:19.542Z,62.27
2022-12-19T13:33:56.149Z,62.10
2022-12-19T13:39:49.182Z,60.00
2022-12-19T13:40:09.121Z,60.73
2022-12-19T13:43:09.963Z,55.37
2022-12-19T13:45:41.381Z,59.47
2022-12-19T13:48:16.215Z,58.93
2022-12-19T13:50:47.750Z,60.17
2022-12-19T13:53:18.804Z,62.30
2022-12-19T13:55:46.292Z,63.57
2022-12-19T13:58:22.154Z,63.50
2022-12-19T14:01:01.194Z,62.50
2022-12-19T14:03:55.885Z,49.77
2022-12-19T14:06:31.184Z,51.93
2022-12-19T14:11:25.116Z,62.50
2022-12-19T14:13:49.239Z,54.37
2022-12-19T14:15:12.719Z,61.33
2022-12-19T14:17:40.849Z,61.73
2022-12-19T14:22:02.549Z,52.27
2022-12-19T14:23:10.877Z,55.20
2022-12-19T14:28:17.602Z,60.80
2022-12-19T14:28:54.603Z,67.67
2022-12-19T14:31:23.309Z,61.07
2022-12-19T14:34:27.086Z,51.50
2022-12-19T14:36:46.891Z,62.83
2022-12-19T14:39:22.942Z,62.80
2022-12-19T14:42:32.973Z,55.43
2022-12-19T14:54:06.893Z,62.03
2022-12-19T14:54:11.025Z,66.27
2022-12-19T14:54:12.115Z,60.67
2022-12-19T14:57:25.542Z,50.83
2022-12-19T15:01:09.021Z,52.07
2022-12-19T15:03:26.687Z,66.27
2022-12-19T15:07:06.060Z,58.57
2022-12-19T15:11:07.820Z,61.40
2022-12-19T15:14:51.164Z,60.53
2022-12-19T15:15:21.446Z,60.90
2022-12-19T15:17:51.106Z,56.70
2022-12-19T15:20:18.352Z,59.57
2022-12-19T15:22:45.202Z,53.53
2022-12-19T15:25:43.909Z,55.73
2022-12-19T15:28:32.070Z,52.93
2022-12-19T15:31:04.408Z,56.23
2022-12-19T15:33:31.116Z,53.40
2022-12-19T15:35:58.016Z,52.03
2022-12-19T15:38:24.759Z,49.77
2022-12-19T15:40:51.426Z,50.33
2022-12-19T15:44:01.068Z,56.10
2022-12-19T15:46:11.897Z,53.00
2022-12-19T15:48:43.162Z,54.23
2022-12-19T15:51:13.287Z,56.53
2022-12-19T15:53:41.532Z,55.03
2022-12-19T15:56:29.626Z,54.03
2022-12-19T15:58:58.565Z,56.90
2022-12-19T16:01:26.590Z,56.70
2022-12-19T16:03:54.182Z,59.73
2022-12-19T16:06:21.181Z,56.70
2022-12-19T16:08:47.972Z,60.10
2022-12-19T16:11:24.786Z,58.70
2022-12-19T16:13:57.500Z,60.70
2022-12-19T16:16:25.309Z,60.50
2022-12-19T16:18:52.050Z,61.33
2022-12-19T16:21:31.533Z,52.93
2022-12-19T16:24:00.540Z,59.20
2022-12-19T16:26:28.866Z,67.23
2022-12-19T16:28:55.725Z,58.97
2022-12-19T16:31:24.631Z,60.63
2022-12-19T16:33:51.888Z,58.20
2022-12-19T16:36:18.619Z,58.80
2022-12-19T16:38:45.288Z,58.57
2022-12-19T16:41:22.353Z,54.97
2022-12-19T16:43:49.869Z,54.97
2022-12-19T16:46:20.313Z,57.50
2022-12-19T16:48:48.166Z,54.93
2022-12-19T16:51:23.115Z,48.57
2022-12-19T16:53:51.508Z,51.57
2022-12-19T16:56:30.999Z,52.47
2022-12-19T16:59:01.019Z,47.93
2022-12-19T17:01:28.451Z,56.77
2022-12-19T17:03:55.402Z,48.13
2022-12-19T17:06:23.191Z,56.23
2022-12-19T17:08:49.945Z,60.60
2022-12-19T17:11:25.840Z,55.67
2022-12-19T17:14:04.396Z,55.40
2022-12-19T17:16:31.709Z,57.70
2022-12-19T17:18:59.307Z,52.67
2022-12-19T17:21:25.987Z,54.73
2022-12-19T17:23:52.892Z,52.47
2022-12-19T17:26:19.809Z,58.87
2022-12-19T17:28:49.245Z,60.13
2022-12-19T17:31:26.512Z,59.00
2022-12-19T17:33:55.580Z,53.97
2022-12-19T17:36:27.642Z,56.40
2022-12-19T17:38:56.738Z,56.60
2022-12-19T17:41:23.467Z,52.70
2022-12-19T17:43:50.218Z,55.53
2022-12-19T17:46:19.526Z,47.50
2022-12-19T17:48:50.307Z,48.67
2022-12-19T17:51:19.089Z,48.17
2022-12-19T17:53:46.514Z,58.80
2022-12-19T17:56:18.046Z,54.27
2022-12-19T17:58:44.935Z,56.17
2022-12-19T18:01:23.258Z,59.57
2022-12-19T18:03:52.132Z,54.50
2022-12-19T18:06:19.067Z,57.53
2022-12-19T18:08:45.792Z,52.83
2022-12-19T18:11:22.515Z,48.37
2022-12-19T18:13:49.709Z,53.10
2022-12-19T18:16:25.669Z,50.80
2022-12-19T18:18:52.928Z,47.07
2022-12-19T18:21:22.307Z,50.03
2022-12-19T18:23:49.084Z,50.67
2022-12-19T18:26:15.824Z,51.80
2022-12-19T18:28:42.793Z,51.23
2022-12-19T18:31:26.335Z,44.30
2022-12-19T18:33:54.790Z,51.97
2022-12-19T18:36:27.532Z,49.47
2022-12-19T18:38:55.200Z,41.53
2022-12-19T18:41:23.321Z,49.77
2022-12-19T18:43:50.067Z,48.90
2022-12-19T18:46:22.383Z,51.47
2022-12-19T18:48:49.674Z,55.00
2022-12-19T18:51:21.149Z,50.30
2022-12-19T18:53:49.351Z,48.53
2022-12-19T18:56:16.288Z,56.53
2022-12-19T18:58:43.092Z,51.43
2022-12-19T19:01:16.698Z,53.23
2022-12-19T19:03:57.217Z,55.23
2022-12-19T19:06:27.531Z,42.87
2022-12-19T19:08:57.026Z,45.50
2022-12-19T19:11:24.926Z,49.73
2022-12-19T19:13:52.370Z,48.90
2022-12-19T19:16:24.861Z,56.57
2022-12-19T19:18:56.665Z,53.90
2022-12-19T19:21:27.041Z,57.73
2022-12-19T19:24:07.499Z,52.27
2022-12-19T19:26:34.350Z,60.03
2022-12-19T19:29:01.048Z,55.27
2022-12-19T19:31:32.253Z,52.57
2022-12-19T19:34:27.442Z,59.20
2022-12-19T19:36:57.249Z,51.90
2022-12-19T19:39:24.210Z,53.50
2022-12-19T19:41:50.950Z,54.20
2022-12-19T19:44:17.812Z,53.07
2022-12-19T19:46:44.861Z,55.30
2022-12-19T19:49:12.298Z,48.37
2022-12-19T19:51:39.340Z,48.47
2022-12-19T19:54:06.169Z,60.47
2022-12-19T19:56:32.960Z,50.17
2022-12-19T19:59:00.621Z,49.67
2022-12-19T20:01:27.843Z,54.10
2022-12-19T20:03:54.708Z,51.17
2022-12-19T20:06:21.621Z,45.40
2022-12-19T20:08:49.329Z,55.07
2022-12-19T20:11:16.137Z,47.43
2022-12-19T20:13:42.890Z,49.80
2022-12-19T20:16:12.367Z,49.70
2022-12-19T20:18:40.523Z,48.53
2022-12-19T20:21:13.650Z,46.97
2022-12-19T20:23:42.850Z,46.93
2022-12-19T20:26:11.508Z,55.33
2022-12-19T20:28:43.962Z,59.73
2022-12-19T20:31:14.913Z,63.23
2022-12-19T20:33:41.714Z,53.57
2022-12-19T20:36:11.145Z,57.03
2022-12-19T20:38:38.272Z,49.93
2022-12-19T20:41:05.271Z,57.80
2022-12-19T20:43:32.168Z,51.03
2022-12-19T20:46:07.885Z,56.23
2022-12-19T20:48:34.566Z,51.87
2022-12-19T20:51:02.509Z,56.27
2022-12-19T20:53:29.250Z,66.77
2022-12-19T20:55:59.091Z,45.53
2022-12-19T20:58:26.601Z,55.40
2022-12-19T21:01:02.409Z,51.23
2022-12-19T21:03:30.248Z,55.20
2022-12-19T21:05:57.853Z,51.27
2022-12-19T21:08:26.036Z,51.37
2022-12-19T21:10:53.652Z,55.70
2022-12-19T21:13:21.919Z,56.83
2022-12-19T21:15:56.757Z,59.93
2022-12-19T21:18:24.068Z,51.07
2022-12-19T21:20:52.842Z,50.23
2022-12-19T21:23:19.635Z,49.67
2022-12-19T21:25:46.312Z,51.03
2022-12-19T21:28:13.094Z,48.00
2022-12-19T21:30:40.004Z,49.90
2022-12-19T21:33:06.797Z,53.50
2022-12-19T21:35:34.697Z,55.97
2022-12-19T21:38:02.152Z,51.57
2022-12-19T21:40:28.869Z,53.43
2022-12-19T21:42:55.553Z,49.50
2022-12-19T21:45:22.245Z,56.00
2022-12-19T21:47:48.907Z,52.17
2022-12-19T21:50:15.737Z,49.93
2022-12-19T21:52:42.407Z,55.70
2022-12-19T21:55:09.763Z,53.43
2022-12-19T21:57:42.682Z,52.33
2022-12-19T22:00:12.001Z,57.20
2022-12-19T22:02:41.349Z,54.30
2022-12-19T22:05:17.413Z,60.00
2022-12-19T22:07:44.161Z,68.03
2022-12-19T22:10:11.133Z,64.47
2022-12-19T22:12:37.799Z,60.00
2022-12-19T22:15:04.743Z,61.13
2022-12-19T22:17:31.449Z,60.60
2022-12-19T22:19:58.194Z,64.33
2022-12-19T22:22:25.125Z,67.03
2022-12-19T22:24:51.822Z,66.50
2022-12-19T22:27:18.558Z,65.57
2022-12-19T22:29:45.392Z,68.67
2022-12-19T22:32:12.253Z,58.30
2022-12-19T22:34:38.983Z,61.60
2022-12-19T22:37:05.742Z,61.23
2022-12-19T22:39:32.472Z,64.60
2022-12-19T22:41:59.153Z,61.80
2022-12-19T22:44:26.030Z,66.97
2022-12-19T22:46:52.962Z,55.00
2022-12-19T22:49:20.035Z,57.80
2022-12-19T22:51:46.754Z,62.10
2022-12-19T22:54:13.621Z,71.00
2022-12-19T22:56:41.310Z,62.13
2022-12-19T22:59:10.479Z,63.07
2022-12-19T23:01:40.324Z,70.27
2022-12-19T23:04:08.579Z,63.70
2022-12-19T23:06:37.099Z,65.77
2022-12-19T23:09:08.515Z,63.17
2022-12-19T23:11:37.635Z,62.47
2022-12-19T23:14:06.354Z,64.07
2022-12-19T23:16:33.231Z,56.20
2022-12-19T23:18:59.986Z,65.93
2022-12-19T23:21:27.286Z,66.50
2022-12-19T23:23:55.416Z,66.00
2022-12-19T23:26:28.886Z,68.73
2022-12-19T23:29:01.542Z,70.73
2022-12-19T23:31:29.777Z,69.53
2022-12-19T23:33:57.578Z,67.17
2022-12-19T23:37:00.633Z,65.80
2022-12-19T23:39:12.187Z,73.20
2022-12-19T23:41:39.714Z,67.27
2022-12-19T23:44:06.585Z,60.17
2022-12-19T23:46:33.241Z,66.33
2022-12-19T23:49:00.002Z,59.77
2022-12-19T23:51:27.798Z,65.30
2022-12-19T23:53:56.048Z,55.97
2022-12-19T23:56:28.601Z,66.30
2022-12-19T23:58:55.459Z,60.03
